Time;durP1;ratioP1;P1;durP2;ratioP2;P2;SDS_P1;SDS_P2;PMS_P1;PMS_P2;Temp;Humidity;BMP_temperature;BMP_pressure;BME280_temperature;BME280_humidity;BME280_pressure;Samples;Min_cycle;Max_cycle;Signal;HPM_P1;HPM_P2
2023/01/25 00:01:20;;;;;;;;;67.00;51.75;;;;;2.86;63.94;100628.81;5090590;27;45403;-73
2023/01/25 00:03:46;;;;;;;;;61.50;48.25;;;;;2.85;63.85;100619.28;5096206;27;46124;-73
2023/01/25 00:06:11;;;;;;;;;61.75;50.75;;;;;2.85;63.83;100616.69;5074747;27;45321;-73
2023/01/25 00:08:37;;;;;;;;;66.50;52.75;;;;;2.85;63.89;100611.47;5096895;27;45450;-73
2023/01/25 00:11:03;;;;;;;;;66.75;53.25;;;;;2.86;63.89;100615.78;5091525;27;45425;-73
2023/01/25 00:13:29;;;;;;;;;62.75;50.00;;;;;2.86;63.80;100616.66;5095634;27;45468;-73
2023/01/25 00:16:00;;;;;;;;;64.25;49.00;;;;;2.87;64.18;100615.81;5092202;27;45495;-73
2023/01/25 00:18:26;;;;;;;;;58.33;45.67;;;;;2.86;64.00;100608.84;5095823;27;46441;-74
2023/01/25 00:20:51;;;;;;;;;60.50;47.00;;;;;2.87;63.97;100610.59;5095485;27;45446;-73
2023/01/25 00:23:17;;;;;;;;;69.67;50.00;;;;;2.88;64.20;100608.88;5097633;27;45814;-74
2023/01/25 00:25:42;;;;;;;;;63.33;51.67;;;;;2.86;64.11;100603.66;5078506;27;45472;-73
2023/01/25 00:28:07;;;;;;;;;60.75;50.75;;;;;2.86;64.10;100597.56;5096415;27;45485;-73
2023/01/25 00:30:33;;;;;;;;;64.50;50.25;;;;;2.85;64.06;100588.88;5094597;27;45368;-74
2023/01/25 00:33:26;;;;;;;;;55.00;46.00;;;;;2.85;64.58;100603.66;5096828;27;45974;-73
2023/01/25 00:35:55;;;;;;;;;66.75;51.50;;;;;2.85;64.47;100601.91;5091680;27;45583;-73
2023/01/25 00:38:33;;;;;;;;;60.33;48.00;;;;;2.85;64.63;100599.28;5085591;27;45572;-73
2023/01/25 00:40:59;;;;;;;;;60.00;47.33;;;;;2.83;64.65;100603.63;5094124;27;45435;-74
2023/01/25 00:43:24;;;;;;;;;60.75;47.00;;;;;2.81;64.58;100600.13;5099953;27;45548;-73
2023/01/25 00:45:50;;;;;;;;;61.50;50.00;;;;;2.82;64.66;100596.66;5095663;27;45545;-73
2023/01/25 00:48:15;;;;;;;;;62.50;46.50;;;;;2.81;64.71;100581.91;5096399;27;46186;-73
2023/01/25 00:50:41;;;;;;;;;68.00;50.00;;;;;2.82;65.02;100591.47;5093176;27;45487;-74
2023/01/25 00:53:06;;;;;;;;;64.50;49.25;;;;;2.83;64.59;100588.00;5077951;27;45355;-73
2023/01/25 00:55:32;;;;;;;;;65.75;52.00;;;;;2.83;64.79;100587.13;5101137;27;45634;-74
2023/01/25 00:57:57;;;;;;;;;63.50;53.50;;;;;2.82;64.75;100585.38;5096252;27;45431;-74
2023/01/25 01:00:23;;;;;;;;;60.00;47.50;;;;;2.80;65.04;100583.63;5094076;27;45524;-73
2023/01/25 01:02:48;;;;;;;;;52.00;45.67;;;;;2.80;65.17;100582.75;5096094;27;45491;-74
2023/01/25 01:05:13;;;;;;;;;63.75;50.50;;;;;2.79;65.04;100594.88;5079764;27;46025;-73
2023/01/25 01:07:39;;;;;;;;;66.00;50.25;;;;;2.80;65.17;100596.66;5090113;27;46024;-73
2023/01/25 01:10:05;;;;;;;;;62.50;48.00;;;;;2.79;64.89;100597.50;5095010;27;45531;-73
2023/01/25 01:12:30;;;;;;;;;57.67;49.67;;;;;2.79;65.40;100599.22;5095840;27;45505;-73
2023/01/25 01:14:56;;;;;;;;;60.67;50.00;;;;;2.76;65.18;100592.22;5094880;27;45546;-73
2023/01/25 01:17:21;;;;;;;;;64.67;47.00;;;;;2.76;65.46;100588.75;5095712;27;45464;-73
2023/01/25 01:19:47;;;;;;;;;67.00;50.75;;;;;2.76;65.56;100593.97;5079609;27;45473;-73
2023/01/25 01:22:12;;;;;;;;;53.00;46.25;;;;;2.75;65.49;100600.91;5095367;27;45527;-73
2023/01/25 01:24:38;;;;;;;;;61.00;49.50;;;;;2.73;65.35;100589.59;5094547;27;45494;-73
2023/01/25 01:27:03;;;;;;;;;67.00;53.25;;;;;2.73;65.69;100599.13;5094771;27;46224;-74
2023/01/25 01:29:29;;;;;;;;;59.75;46.00;;;;;2.73;65.82;100593.91;5095649;27;45425;-73
2023/01/25 01:31:55;;;;;;;;;64.00;51.00;;;;;2.72;65.83;100602.56;5089418;27;45443;-73
2023/01/25 01:34:21;;;;;;;;;67.25;54.25;;;;;2.71;65.61;100598.22;5095134;27;45407;-74
2023/01/25 01:36:46;;;;;;;;;63.50;50.25;;;;;2.70;65.73;100596.47;5090528;27;45406;-74
2023/01/25 01:39:12;;;;;;;;;68.25;49.75;;;;;2.70;65.61;100588.66;5094775;27;45500;-74
2023/01/25 01:41:38;;;;;;;;;62.50;51.75;;;;;2.68;65.78;100591.22;5092289;27;45375;-73
2023/01/25 01:44:03;;;;;;;;;59.50;47.00;;;;;2.67;65.48;100594.72;5095239;27;45512;-73
2023/01/25 01:46:38;;;;;;;;;65.33;48.67;;;;;2.67;65.66;100583.44;5092204;27;46250;-74
2023/01/25 01:49:10;;;;;;;;;60.67;50.67;;;;;2.67;65.65;100581.69;5093948;27;45373;-74
2023/01/25 01:51:47;;;;;;;;;65.00;51.00;;;;;2.67;65.90;100578.22;5092576;27;45454;-73
2023/01/25 01:54:28;;;;;;;;;62.50;47.00;;;;;2.67;65.57;100586.03;5095044;27;45487;-73
2023/01/25 01:56:59;;;;;;;;;64.75;50.00;;;;;2.65;65.34;100587.72;5091843;27;45417;-74
2023/01/25 01:59:29;;;;;;;;;63.75;48.75;;;;;2.63;65.51;100577.28;5066784;27;45349;-73
2023/01/25 02:01:55;;;;;;;;;62.50;51.25;;;;;2.63;65.45;100579.91;5070915;27;45472;-73
2023/01/25 02:04:25;;;;;;;;;62.50;51.50;;;;;2.64;65.57;100576.44;5088685;27;45334;-73
2023/01/25 02:07:00;;;;;;;;;66.75;49.00;;;;;2.65;65.32;100569.50;5093490;27;46211;-73
2023/01/25 02:09:30;;;;;;;;;67.25;50.00;;;;;2.63;65.37;100574.69;5095172;27;45463;-73
2023/01/25 02:11:57;;;;;;;;;65.25;51.50;;;;;2.63;65.71;100579.03;5093181;27;45503;-73
2023/01/25 02:14:22;;;;;;;;;64.75;50.50;;;;;2.62;66.01;100575.53;5076629;27;45504;-74
2023/01/25 02:16:48;;;;;;;;;65.75;50.25;;;;;2.64;65.90;100572.97;5091373;27;45518;-73
2023/01/25 02:19:29;;;;;;;;;63.75;48.00;;;;;2.64;66.07;100573.84;5110419;27;45399;-73
2023/01/25 02:21:57;;;;;;;;;61.75;51.00;;;;;2.63;66.12;100566.00;5093049;27;45485;-73
2023/01/25 02:24:29;;;;;;;;;64.75;49.75;;;;;2.62;66.27;100565.13;5094900;27;45665;-73
2023/01/25 02:26:55;;;;;;;;;71.00;51.25;;;;;2.63;65.99;100563.41;5071011;27;45424;-74
2023/01/25 02:29:23;;;;;;;;;61.75;48.25;;;;;2.62;66.02;100559.03;5086109;27;45370;-74
2023/01/25 02:31:51;;;;;;;;;52.00;41.00;;;;;2.63;65.99;100550.38;5093058;27;45443;-74
2023/01/25 02:34:17;;;;;;;;;65.00;50.75;;;;;2.66;66.04;100548.69;5093800;27;45543;-74
2023/01/25 02:36:43;;;;;;;;;69.25;53.75;;;;;2.67;66.11;100549.56;5085565;27;47030;-74
2023/01/25 02:39:18;;;;;;;;;62.00;46.33;;;;;2.69;65.78;100553.06;5080641;27;45467;-74
2023/01/25 02:41:48;;;;;;;;;62.00;48.75;;;;;2.71;65.85;100548.75;5088730;27;45459;-74
2023/01/25 02:44:17;;;;;;;;;51.50;43.25;;;;;2.71;65.98;100549.63;5093229;27;45599;-73
2023/01/25 02:46:44;;;;;;;;;53.67;45.33;;;;;2.73;65.92;100553.13;5093616;27;45450;-74
2023/01/25 02:49:10;;;;;;;;;61.75;48.50;;;;;2.73;65.76;100558.34;5094267;27;45479;-73
2023/01/25 02:51:41;;;;;;;;;63.00;48.00;;;;;2.74;65.89;100554.88;5093272;27;45474;-74
2023/01/25 02:54:07;;;;;;;;;62.75;49.50;;;;;2.77;65.81;100554.06;5112817;27;45543;-75
2023/01/25 02:56:33;;;;;;;;;62.25;50.00;;;;;2.76;65.86;100558.38;5092894;27;45469;-75
2023/01/25 02:59:04;;;;;;;;;61.33;49.67;;;;;2.78;65.90;100548.00;5094040;27;45469;-75
2023/01/25 03:01:33;;;;;;;;;59.00;47.75;;;;;2.78;66.05;100541.06;5093411;27;45381;-74
2023/01/25 03:03:58;;;;;;;;;58.67;45.67;;;;;2.81;66.12;100548.03;5076130;27;45564;-74
2023/01/25 03:06:24;;;;;;;;;59.25;47.00;;;;;2.80;66.19;100541.97;5087527;27;45969;-74
2023/01/25 03:08:49;;;;;;;;;58.67;47.33;;;;;2.82;66.18;100551.53;5094396;27;45423;-75
2023/01/25 03:11:15;;;;;;;;;66.50;52.25;;;;;2.82;66.02;100555.00;5093198;27;45501;-74
2023/01/25 03:13:40;;;;;;;;;67.75;50.00;;;;;2.81;66.02;100550.66;5080274;27;45543;-74
2023/01/25 03:16:11;;;;;;;;;70.25;52.25;;;;;2.82;65.77;100538.50;5094446;27;47624;-75
2023/01/25 03:18:38;;;;;;;;;63.50;50.00;;;;;2.81;65.77;100535.03;5068086;27;45454;-75
2023/01/25 03:21:22;;;;;;;;;69.75;50.75;;;;;2.81;65.65;100537.63;5096923;27;45545;-73
2023/01/25 03:23:53;;;;;;;;;60.33;48.00;;;;;2.79;65.54;100532.41;5095359;27;45371;-75
2023/01/25 03:26:21;;;;;;;;;63.00;48.00;;;;;2.78;65.82;100525.44;5095084;27;45448;-73
2023/01/25 03:28:46;;;;;;;;;62.67;48.00;;;;;2.77;65.54;100528.88;5097122;27;45496;-73
2023/01/25 03:31:13;;;;;;;;;65.67;51.67;;;;;2.78;65.62;100529.75;5091348;27;45487;-73
2023/01/25 03:33:40;;;;;;;;;58.00;46.00;;;;;2.78;65.58;100527.16;5100547;27;45475;-73
2023/01/25 03:36:07;;;;;;;;;39.33;26.33;;;;;2.78;65.54;100529.75;5094016;27;46205;-73
2023/01/25 03:38:33;;;;;;;;;58.67;47.67;;;;;2.77;65.60;100525.41;5083060;27;45572;-73
2023/01/25 03:40:59;;;;;;;;;62.33;49.00;;;;;2.76;65.69;100524.53;5096846;27;45411;-73
2023/01/25 03:43:25;;;;;;;;;54.67;45.00;;;;;2.74;65.75;100528.84;5097271;27;45475;-73
2023/01/25 03:45:55;;;;;;;;;65.00;50.67;;;;;2.74;65.69;100526.25;5093154;27;45601;-74
2023/01/25 03:48:22;;;;;;;;;61.67;50.33;;;;;2.73;65.72;100524.47;5078300;27;45409;-75
2023/01/25 03:50:52;;;;;;;;;58.67;49.33;;;;;2.72;65.83;100522.72;5084081;27;45521;-74
2023/01/25 03:53:31;;;;;;;;;56.00;45.75;;;;;2.73;65.85;100521.00;5097265;27;45422;-74
2023/01/25 03:56:00;;;;;;;;;67.50;52.75;;;;;2.73;65.86;100515.81;5095177;27;45399;-74
2023/01/25 03:58:25;;;;;;;;;58.00;45.75;;;;;2.71;65.79;100513.16;5097384;27;45493;-74
2023/01/25 04:00:54;;;;;;;;;61.00;48.25;;;;;2.71;65.85;100513.16;5110148;27;45656;-75
2023/01/25 04:03:20;;;;;;;;;62.25;48.25;;;;;2.70;65.91;100513.16;5096727;27;45397;-74
2023/01/25 04:05:46;;;;;;;;;62.25;50.25;;;;;2.70;66.07;100507.94;5096013;27;45902;-74
2023/01/25 04:08:12;;;;;;;;;55.00;44.75;;;;;2.70;65.95;100513.16;5082907;27;45515;-74
2023/01/25 04:10:37;;;;;;;;;58.75;45.25;;;;;2.68;65.85;100502.72;5089885;27;45542;-74
2023/01/25 04:13:03;;;;;;;;;58.25;47.50;;;;;2.68;65.97;100496.66;5093888;27;45457;-74
2023/01/25 04:15:28;;;;;;;;;66.00;50.00;;;;;2.67;66.33;100492.31;5093248;27;45573;-74
2023/01/25 04:17:55;;;;;;;;;58.50;43.75;;;;;2.64;66.63;100493.13;5093352;27;45399;-75
2023/01/25 04:20:20;;;;;;;;;62.00;48.00;;;;;2.65;66.73;100486.19;5093297;27;45590;-73
2023/01/25 04:22:45;;;;;;;;;66.50;51.25;;;;;2.64;66.68;100482.72;5096709;27;45309;-74
2023/01/25 04:25:11;;;;;;;;;56.33;46.00;;;;;2.63;66.59;100485.28;5116753;27;47070;-74
2023/01/25 04:27:36;;;;;;;;;60.00;47.67;;;;;2.62;66.70;100487.03;5096488;27;45447;-74
2023/01/25 04:30:02;;;;;;;;;61.00;50.75;;;;;2.62;66.89;100488.75;5092258;27;45426;-74
2023/01/25 04:32:28;;;;;;;;;63.50;51.00;;;;;2.60;66.81;100486.13;5096307;27;45411;-74
2023/01/25 04:34:53;;;;;;;;;58.33;45.00;;;;;2.62;67.00;100481.81;5094454;27;46145;-74
2023/01/25 04:37:18;;;;;;;;;62.50;50.75;;;;;2.63;67.21;100480.09;5094239;27;45455;-74
2023/01/25 04:39:44;;;;;;;;;63.50;51.50;;;;;2.63;66.81;100474.88;5094999;27;47239;-74
2023/01/25 04:42:09;;;;;;;;;60.75;49.25;;;;;2.64;66.91;100474.03;5075448;27;45484;-75
2023/01/25 04:44:34;;;;;;;;;66.00;49.33;;;;;2.62;66.75;100471.41;5100801;27;46606;-74
2023/01/25 04:47:00;;;;;;;;;61.25;50.00;;;;;2.61;66.61;100472.25;5095755;27;45403;-74
2023/01/25 04:49:25;;;;;;;;;56.25;47.00;;;;;2.58;67.03;100469.59;5096085;27;45987;-74
2023/01/25 04:51:50;;;;;;;;;64.50;47.00;;;;;2.60;67.46;100480.03;5090314;27;45476;-74
2023/01/25 04:54:16;;;;;;;;;65.33;49.00;;;;;2.59;67.07;100470.47;5095894;27;46313;-74
2023/01/25 04:56:41;;;;;;;;;52.00;45.00;;;;;2.59;67.04;100463.53;5096149;27;45507;-74
2023/01/25 04:59:06;;;;;;;;;60.75;46.00;;;;;2.58;67.29;100472.22;5096028;27;45254;-74
2023/01/25 05:01:32;;;;;;;;;59.00;47.00;;;;;2.58;67.42;100468.72;5094824;27;45367;-74
2023/01/25 05:03:58;;;;;;;;;61.67;47.00;;;;;2.59;67.33;100470.47;5095576;27;45404;-74
2023/01/25 05:06:27;;;;;;;;;60.67;49.33;;;;;2.60;66.95;100473.09;5094860;27;45550;-74
2023/01/25 05:08:52;;;;;;;;;53.67;39.67;;;;;2.58;67.06;100472.22;5096096;27;45605;-74
2023/01/25 05:11:17;;;;;;;;;61.00;46.50;;;;;2.59;67.25;100478.28;5073611;27;45658;-74
2023/01/25 05:13:43;;;;;;;;;68.00;51.67;;;;;2.60;67.14;100470.50;5095129;27;45587;-74
2023/01/25 05:16:08;;;;;;;;;64.25;50.50;;;;;2.61;66.82;100472.25;5092863;27;45486;-74
2023/01/25 05:18:33;;;;;;;;;57.50;44.50;;;;;2.62;66.81;100475.72;5095218;27;45439;-74
2023/01/25 05:20:59;;;;;;;;;39.33;33.33;;;;;2.63;67.07;100480.97;5095168;27;45502;-74
2023/01/25 05:23:24;;;;;;;;;64.50;51.75;;;;;2.66;67.08;100477.53;5104386;27;45454;-74
2023/01/25 05:28:33;;;;;;;;;67.00;50.00;;;;;2.66;66.80;100472.31;5095397;27;45514;-74
2023/01/25 05:31:02;;;;;;;;;68.00;48.75;;;;;2.66;66.66;100475.81;5091785;27;45570;-74
2023/01/25 05:33:28;;;;;;;;;57.67;48.33;;;;;2.65;66.94;100471.44;5076727;27;47320;-74
2023/01/25 05:35:55;;;;;;;;;68.75;54.25;;;;;2.68;66.88;100470.63;5091248;27;45463;-74
2023/01/25 05:38:20;;;;;;;;;67.25;53.00;;;;;2.69;67.12;100468.00;5094201;27;45415;-74
2023/01/25 05:40:45;;;;;;;;;63.00;48.25;;;;;2.71;67.04;100468.03;5092526;27;45538;-74
2023/01/25 05:43:11;;;;;;;;;68.25;52.50;;;;;2.70;66.75;100472.38;5095271;27;46315;-74
2023/01/25 05:45:36;;;;;;;;;66.25;51.25;;;;;2.69;66.77;100465.41;5093012;27;45514;-74
2023/01/25 05:48:02;;;;;;;;;62.00;48.50;;;;;2.69;66.71;100467.13;5081258;27;45722;-74
2023/01/25 05:50:27;;;;;;;;;61.25;49.25;;;;;2.67;66.77;100464.53;5079638;27;45890;-74
2023/01/25 05:52:53;;;;;;;;;65.00;49.25;;;;;2.68;66.86;100466.25;5080990;27;47242;-74
2023/01/25 05:55:18;;;;;;;;;67.25;53.25;;;;;2.67;66.37;100459.34;5097126;27;45442;-74
2023/01/25 05:57:43;;;;;;;;;67.00;51.75;;;;;2.68;66.69;100462.81;5079377;27;45510;-74
2023/01/25 06:00:10;;;;;;;;;75.00;58.50;;;;;2.67;67.21;100467.16;5092956;27;45448;-74
2023/01/25 06:02:36;;;;;;;;;71.50;56.00;;;;;2.68;67.09;100468.03;5080032;27;46769;-74
2023/01/25 06:05:02;;;;;;;;;75.50;55.50;;;;;2.66;67.02;100465.41;5093047;27;45405;-74
2023/01/25 06:07:27;;;;;;;;;73.75;56.25;;;;;2.64;67.20;100466.22;5080283;27;45496;-74
2023/01/25 06:09:53;;;;;;;;;73.75;56.25;;;;;2.62;67.25;100466.19;5093254;27;45542;-74
2023/01/25 06:12:21;;;;;;;;;68.75;50.00;;;;;2.60;67.15;100461.81;5091490;27;45371;-74
2023/01/25 06:14:47;;;;;;;;;65.25;52.50;;;;;2.58;67.24;100468.72;5080446;27;45438;-74
2023/01/25 06:17:13;;;;;;;;;71.75;56.00;;;;;2.55;67.48;100466.94;5093827;27;45404;-73
2023/01/25 06:19:38;;;;;;;;;70.75;52.00;;;;;2.53;67.14;100466.06;5093094;27;45497;-75
2023/01/25 06:22:06;;;;;;;;;61.00;48.75;;;;;2.53;67.60;100460.84;5091672;27;45392;-74
2023/01/25 06:24:32;;;;;;;;;67.67;50.67;;;;;2.53;67.48;100462.56;5094249;27;45424;-74
2023/01/25 06:26:57;;;;;;;;;64.25;50.00;;;;;2.49;67.30;100458.22;5093003;27;45552;-75
2023/01/25 06:29:23;;;;;;;;;61.00;49.00;;;;;2.48;67.32;100461.66;5079168;27;45358;-74
2023/01/25 06:31:48;;;;;;;;;62.25;50.25;;;;;2.45;67.61;100459.88;5091929;27;46589;-75
2023/01/25 06:34:13;;;;;;;;;64.75;50.50;;;;;2.40;67.38;100459.81;5093216;27;45422;-75
2023/01/25 06:36:39;;;;;;;;;69.25;50.00;;;;;2.40;67.41;100457.22;5087369;27;45396;-75
2023/01/25 06:39:04;;;;;;;;;51.50;45.50;;;;;2.38;67.60;100453.72;5085849;27;45416;-74
2023/01/25 06:41:30;;;;;;;;;59.75;48.00;;;;;2.37;67.76;100451.97;5091017;27;47510;-75
2023/01/25 06:43:56;;;;;;;;;62.75;51.25;;;;;2.36;67.81;100450.22;5092146;27;45418;-75
2023/01/25 06:46:21;;;;;;;;;60.00;46.25;;;;;2.35;67.78;100450.19;5092498;27;45387;-74
2023/01/25 06:48:47;;;;;;;;;68.25;52.25;;;;;2.34;68.08;100457.16;5092354;27;45552;-75
2023/01/25 06:51:15;;;;;;;;;71.50;51.50;;;;;2.34;67.81;100453.66;5107145;27;46059;-75
2023/01/25 06:53:43;;;;;;;;;71.75;53.50;;;;;2.36;68.10;100449.31;5105498;27;45474;-74
2023/01/25 06:56:12;;;;;;;;;65.25;50.75;;;;;2.38;68.13;100458.03;5098150;27;45404;-74
2023/01/25 07:01:34;;;;;;;;;75.00;58.75;;;;;2.37;67.89;100449.34;5086629;27;45500;-74
2023/01/25 07:03:59;;;;;;;;;70.00;55.00;;;;;2.38;68.29;100445.91;5092649;27;45377;-74
2023/01/25 07:06:29;;;;;;;;;72.50;53.25;;;;;2.40;68.26;100446.81;5094011;27;45434;-77
2023/01/25 07:08:55;;;;;;;;;67.00;53.25;;;;;2.39;68.35;100447.66;5101543;27;45412;-76
2023/01/25 07:11:20;;;;;;;;;61.50;48.00;;;;;2.40;68.18;100440.72;5091037;27;45593;-76
2023/01/25 07:13:46;;;;;;;;;73.00;55.00;;;;;2.38;68.15;100447.63;5092760;27;45419;-77
2023/01/25 07:16:15;;;;;;;;;70.25;51.50;;;;;2.35;68.33;100445.84;5090507;27;45400;-75
2023/01/25 07:18:41;;;;;;;;;63.25;48.50;;;;;2.34;68.65;100444.13;5095949;27;45521;-75
2023/01/25 07:21:21;;;;;;;;;64.75;52.50;;;;;2.38;68.51;100448.50;5073277;27;47072;-75
2023/01/25 07:23:50;;;;;;;;;69.00;52.75;;;;;2.38;68.43;100445.91;5095684;27;45442;-76
2023/01/25 07:26:17;;;;;;;;;60.00;49.50;;;;;2.37;68.64;100443.28;5092381;27;45458;-75
2023/01/25 07:28:44;;;;;;;;;67.25;53.50;;;;;2.38;68.54;100455.44;5098673;27;45584;-75
2023/01/25 07:31:09;;;;;;;;;73.50;57.00;;;;;2.39;68.20;100446.78;5090525;27;46621;-75
2023/01/25 07:33:36;;;;;;;;;72.50;53.50;;;;;2.39;68.44;100447.66;5096200;27;45558;-74
2023/01/25 07:36:04;;;;;;;;;68.25;56.00;;;;;2.40;68.01;100449.41;5094382;27;45616;-76
2023/01/25 07:38:30;;;;;;;;;67.25;52.50;;;;;2.42;68.13;100452.03;5096425;27;45495;-75
2023/01/25 07:40:56;;;;;;;;;71.25;52.50;;;;;2.43;67.79;100449.44;5102272;27;47178;-76
2023/01/25 07:43:21;;;;;;;;;67.25;54.50;;;;;2.43;67.97;100444.25;5094873;27;45483;-76
2023/01/25 07:45:48;;;;;;;;;69.75;52.00;;;;;2.45;68.02;100442.53;5094655;27;45542;-76
2023/01/25 07:48:14;;;;;;;;;61.50;48.25;;;;;2.47;68.33;100436.50;5094306;27;45561;-76
2023/01/25 07:50:40;;;;;;;;;63.00;47.33;;;;;2.49;67.97;100447.78;5088083;27;45428;-76
2023/01/25 07:53:06;;;;;;;;;63.00;48.33;;;;;2.50;68.00;100444.34;5095635;27;45467;-75
2023/01/25 07:55:32;;;;;;;;;65.33;51.00;;;;;2.52;68.25;100434.78;5090827;27;45411;-75
2023/01/25 07:57:58;;;;;;;;;64.67;46.00;;;;;2.53;67.92;100452.16;5095564;27;45460;-76
2023/01/25 08:00:23;;;;;;;;;66.75;52.75;;;;;2.52;68.03;100443.47;5095504;27;46045;-74
2023/01/25 08:02:50;;;;;;;;;74.00;55.00;;;;;2.55;67.97;100446.13;5100902;27;45465;-75
2023/01/25 08:05:15;;;;;;;;;66.75;51.25;;;;;2.56;68.08;100436.59;5092444;27;45565;-74
2023/01/25 08:07:40;;;;;;;;;69.75;54.25;;;;;2.55;68.12;100430.50;5096452;27;45419;-75
2023/01/25 08:10:07;;;;;;;;;62.75;51.25;;;;;2.59;67.78;100434.03;5094723;27;45448;-74
2023/01/25 08:12:33;;;;;;;;;74.75;56.75;;;;;2.60;68.12;100433.19;5096175;27;45372;-75
2023/01/25 08:14:59;;;;;;;;;58.25;46.00;;;;;2.62;68.06;100434.97;5108640;27;45333;-74
2023/01/25 08:17:30;;;;;;;;;70.50;53.50;;;;;2.67;68.18;100429.81;5095951;27;45527;-75
2023/01/25 08:19:57;;;;;;;;;74.00;56.50;;;;;2.72;67.94;100433.34;5109339;27;47008;-75
2023/01/25 08:22:22;;;;;;;;;70.00;52.75;;;;;2.77;68.07;100429.06;5094204;27;45338;-75
2023/01/25 08:24:48;;;;;;;;;63.00;51.00;;;;;2.80;67.80;100427.38;5083347;27;45393;-75
2023/01/25 08:27:14;;;;;;;;;66.50;50.25;;;;;2.82;67.71;100432.59;5096290;27;45679;-75
2023/01/25 08:29:39;;;;;;;;;55.75;46.50;;;;;2.85;67.68;100435.22;5092887;27;45869;-74
2023/01/25 08:32:06;;;;;;;;;61.00;50.00;;;;;2.89;67.82;100433.53;5090889;27;45738;-75
2023/01/25 08:34:32;;;;;;;;;59.75;49.25;;;;;2.87;67.92;100433.50;5117309;27;45507;-75
2023/01/25 08:36:57;;;;;;;;;70.50;53.75;;;;;2.89;67.70;100437.00;5084808;27;45481;-75
2023/01/25 08:39:23;;;;;;;;;72.50;51.75;;;;;2.92;67.75;100429.25;5093830;27;45714;-75
2023/01/25 08:41:48;;;;;;;;;69.50;52.75;;;;;2.96;67.57;100430.16;5095375;27;45453;-74
2023/01/25 08:44:14;;;;;;;;;64.25;50.25;;;;;3.01;67.29;100428.50;5095215;27;45344;-75
2023/01/25 08:46:40;;;;;;;;;65.75;51.75;;;;;3.05;67.29;100427.66;5093316;27;45544;-75
2023/01/25 08:49:06;;;;;;;;;65.25;51.00;;;;;3.07;67.04;100420.72;5098110;27;46937;-74
2023/01/25 08:51:32;;;;;;;;;74.00;51.25;;;;;3.12;67.68;100417.31;5091869;27;45402;-75
2023/01/25 08:54:03;;;;;;;;;61.75;44.75;;;;;3.15;66.98;100416.50;5095332;27;45411;-75
2023/01/25 08:56:28;;;;;;;;;67.00;53.25;;;;;3.19;67.19;100410.41;5091365;27;45455;-75
2023/01/25 08:58:54;;;;;;;;;66.75;50.25;;;;;3.24;67.10;100405.25;5118567;27;47170;-75
2023/01/25 09:01:19;;;;;;;;;63.67;52.00;;;;;3.27;66.85;100403.56;5092608;27;45401;-75
2023/01/25 09:03:48;;;;;;;;;59.75;49.25;;;;;3.33;67.08;100408.84;5095749;27;45460;-75
2023/01/25 09:06:14;;;;;;;;;63.00;49.25;;;;;3.38;66.93;100406.28;5087866;27;45449;-75
2023/01/25 09:08:40;;;;;;;;;57.00;45.33;;;;;3.40;66.60;100405.44;5070863;27;45464;-75
2023/01/25 09:11:08;;;;;;;;;62.50;50.25;;;;;3.46;66.72;100387.25;5087503;27;45432;-75
2023/01/25 09:13:34;;;;;;;;;69.75;52.75;;;;;3.50;66.49;100394.25;5093876;27;45416;-75
2023/01/25 09:16:05;;;;;;;;;68.75;51.75;;;;;3.53;66.19;100390.75;5090799;27;45459;-76
2023/01/25 09:18:32;;;;;;;;;65.00;51.33;;;;;3.54;65.87;100394.25;5094849;27;46182;-76
2023/01/25 09:20:57;;;;;;;;;67.75;53.00;;;;;3.52;66.02;100391.63;5092215;27;45491;-76
2023/01/25 09:23:23;;;;;;;;;68.33;52.67;;;;;3.54;66.16;100389.91;5094919;27;45376;-75
2023/01/25 09:26:00;;;;;;;;;68.75;54.25;;;;;3.58;66.07;100393.41;5093171;27;45503;-75
2023/01/25 09:28:27;;;;;;;;;74.25;55.00;;;;;3.60;66.02;100396.91;5090957;27;46354;-75
2023/01/25 09:30:57;;;;;;;;;68.50;53.50;;;;;3.60;65.91;100392.56;5089450;27;45491;-75
2023/01/25 09:33:31;;;;;;;;;73.50;57.00;;;;;3.64;65.83;100388.25;5094802;27;45448;-75
2023/01/25 09:35:57;;;;;;;;;70.75;54.25;;;;;3.63;65.55;100387.38;5092286;27;45512;-75
2023/01/25 09:38:23;;;;;;;;;72.75;56.50;;;;;3.64;66.02;100391.75;5095237;27;46278;-74
2023/01/25 09:41:03;;;;;;;;;69.75;55.25;;;;;3.65;65.64;100393.50;5111068;27;45470;-75
2023/01/25 09:43:32;;;;;;;;;73.50;53.50;;;;;3.65;65.86;100400.44;5076646;27;45375;-75
2023/01/25 09:46:06;;;;;;;;;71.25;58.00;;;;;3.63;65.88;100399.56;5047719;28;45565;-75
2023/01/25 09:48:55;;;;;;;;;73.25;56.25;;;;;3.64;65.97;100402.19;5053991;28;45476;-75
2023/01/25 09:51:58;;;;;;;;;71.50;53.75;;;;;3.67;65.94;100397.00;5047018;28;45554;-75
2023/01/25 09:54:27;;;;;;;;;69.50;52.50;;;;;3.74;65.53;100403.13;5053689;28;45593;-75
2023/01/25 09:56:53;;;;;;;;;70.25;53.25;;;;;3.74;65.86;100397.91;5049487;28;45496;-75
2023/01/25 09:59:25;;;;;;;;;60.50;48.50;;;;;3.76;65.42;100398.78;5052751;28;46182;-75
2023/01/25 10:01:56;;;;;;;;;65.67;51.33;;;;;3.78;65.55;100404.88;5044745;28;45408;-75
2023/01/25 10:04:25;;;;;;;;;64.67;51.33;;;;;3.82;65.51;100397.09;5052397;28;45479;-75
2023/01/25 10:06:52;;;;;;;;;62.50;51.00;;;;;3.84;65.39;100411.03;5067312;28;45364;-75
2023/01/25 10:09:29;;;;;;;;;66.25;52.25;;;;;3.88;65.03;100406.69;5052583;28;46161;-75
2023/01/25 10:11:57;;;;;;;;;69.50;53.75;;;;;3.90;65.30;100398.88;5047127;28;45427;-75
2023/01/25 10:14:23;;;;;;;;;63.00;49.33;;;;;3.89;64.94;100412.78;5053579;28;45447;-75
2023/01/25 10:17:02;;;;;;;;;62.50;50.00;;;;;3.90;65.19;100409.31;5065271;27;45491;-75
2023/01/25 10:19:43;;;;;;;;;66.33;49.33;;;;;3.92;65.13;100405.88;5051129;28;45424;-75
2023/01/25 10:22:27;;;;;;;;;66.50;52.00;;;;;3.96;65.02;100410.25;5084483;27;45479;-75
2023/01/25 10:25:20;;;;;;;;;74.75;54.50;;;;;3.99;65.00;100402.44;5050034;28;45420;-75
2023/01/25 10:28:27;;;;;;;;;70.75;53.75;;;;;3.99;64.74;100401.56;5043384;28;45452;-75
2023/01/25 10:30:59;;;;;;;;;69.75;52.75;;;;;3.99;65.18;100388.53;5045524;28;45676;-75
2023/01/25 10:33:27;;;;;;;;;62.33;51.00;;;;;4.00;64.87;100390.28;5066620;28;46027;-75
2023/01/25 10:35:55;;;;;;;;;56.00;42.33;;;;;4.04;64.95;100389.41;5050886;28;45429;-75
2023/01/25 10:38:29;;;;;;;;;70.75;54.25;;;;;4.07;65.00;100384.22;5053066;28;45455;-75
2023/01/25 10:41:03;;;;;;;;;61.33;49.00;;;;;4.11;64.75;100381.66;5084196;27;47395;-75
2023/01/25 10:43:29;;;;;;;;;69.50;55.50;;;;;4.15;64.67;100382.53;5059996;27;45439;-76
2023/01/25 10:45:54;;;;;;;;;68.75;55.25;;;;;4.10;64.33;100373.81;5090144;27;45455;-75
2023/01/25 10:48:23;;;;;;;;;63.75;51.50;;;;;4.04;64.56;100377.25;5093608;27;45435;-76
2023/01/25 10:50:52;;;;;;;;;65.00;50.25;;;;;4.05;64.37;100368.56;5086550;27;48011;-75
2023/01/25 10:53:22;;;;;;;;;68.00;50.67;;;;;4.06;64.38;100370.28;5093534;27;45493;-75
2023/01/25 10:56:09;;;;;;;;;68.00;52.00;;;;;4.08;64.14;100362.47;5074558;27;45543;-75
2023/01/25 10:58:37;;;;;;;;;67.33;50.00;;;;;4.07;63.97;100359.00;5092519;27;45447;-76
2023/01/25 11:01:09;;;;;;;;;48.00;41.00;;;;;4.09;63.84;100362.50;5104318;27;47297;-76
2023/01/25 11:03:39;;;;;;;;;71.33;49.33;;;;;4.10;63.82;100347.72;5093654;27;45407;-76
2023/01/25 11:06:07;;;;;;;;;55.33;43.00;;;;;4.11;63.92;100341.63;5085694;27;45614;-76
2023/01/25 11:08:37;;;;;;;;;49.67;40.00;;;;;4.17;63.76;100341.69;5092333;27;45374;-76
2023/01/25 11:11:29;;;;;;;;;58.33;46.67;;;;;4.22;63.46;100338.19;5072311;27;46840;-76
2023/01/25 11:13:55;;;;;;;;;53.67;44.33;;;;;4.27;62.98;100327.78;5092996;27;45428;-76
2023/01/25 11:16:23;;;;;;;;;46.33;40.33;;;;;4.33;63.06;100317.38;5072926;27;45412;-76
2023/01/25 11:18:51;;;;;;;;;59.00;44.33;;;;;4.38;62.58;100322.59;5092848;27;45562;-76
2023/01/25 11:21:24;;;;;;;;;57.33;46.33;;;;;4.41;62.54;100315.66;5076931;27;47139;-77
2023/01/25 11:24:08;;;;;;;;;52.33;42.00;;;;;4.49;62.37;100313.97;5092814;27;45503;-76
2023/01/25 11:26:38;;;;;;;;;51.67;39.33;;;;;4.62;62.08;100308.78;5090155;27;45388;-76